Time;durP1;ratioP1;P1;durP2;ratioP2;P2;SDS_P1;SDS_P2;PMS_P1;PMS_P2;Temp;Humidity;BMP_temperature;BMP_pressure;BME280_temperature;BME280_humidity;BME280_pressure;Samples;Min_cycle;Max_cycle;Signal;HPM_P1;HPM_P2
2022/06/10 04:26:28;;;;;;;;;4.00;2.00;;;;;21.35;50.39;101899.09;5084727;27;45556;-71
2022/06/10 04:28:53;;;;;;;;;2.33;2.33;;;;;21.47;50.38;101899.94;5079905;27;45392;-70
2022/06/10 04:31:19;;;;;;;;;3.00;3.00;;;;;21.68;50.59;101897.28;5075083;27;45534;-70
2022/06/10 04:33:44;;;;;;;;;3.00;3.00;;;;;21.90;50.66;101892.81;5072662;27;54236;-72
2022/06/10 04:36:14;;;;;;;;;4.00;3.00;;;;;22.17;50.12;101890.56;5078269;27;45631;-71
2022/06/10 04:38:40;;;;;;;;;4.67;2.00;;;;;22.48;49.84;101906.88;5083069;27;45679;-71
2022/06/10 04:41:06;;;;;;;;;4.33;3.00;;;;;22.75;49.77;101908.19;5085673;27;45766;-71
2022/06/10 04:43:33;;;;;;;;;2.33;2.33;;;;;23.05;48.90;101908.31;5082676;27;45383;-71
2022/06/10 04:45:58;;;;;;;;;3.00;3.00;;;;;23.31;48.99;101905.97;5085607;27;45413;-71
2022/06/10 04:48:24;;;;;;;;;3.00;3.00;;;;;23.54;48.19;101900.34;5083336;27;45504;-71
2022/06/10 04:50:49;;;;;;;;;2.00;2.00;;;;;23.80;48.00;101911.47;5082269;27;45414;-70
2022/06/10 04:53:15;;;;;;;;;4.00;4.00;;;;;24.00;47.42;101902.47;5070108;27;45812;-73
2022/06/10 04:55:41;;;;;;;;;3.00;3.00;;;;;24.21;47.16;101903.19;5052605;27;46668;-71
2022/06/10 04:58:07;;;;;;;;;3.00;3.00;;;;;24.38;47.02;101908.88;5055239;27;47067;-72
2022/06/10 05:00:37;;;;;;;;;3.67;3.00;;;;;24.56;46.43;101894.56;5057164;27;46132;-72
2022/06/10 05:03:03;;;;;;;;;4.33;3.00;;;;;24.72;46.33;101904.78;5071033;27;45573;-72
2022/06/10 05:05:29;;;;;;;;;3.00;3.00;;;;;24.86;46.00;101900.75;5077405;27;59048;-72
2022/06/10 05:07:55;;;;;;;;;4.00;4.00;;;;;24.99;45.71;101900.41;5084591;27;45892;-71
2022/06/10 05:10:21;;;;;;;;;5.67;5.00;;;;;25.14;45.44;101898.06;5085632;27;45478;-72
2022/06/10 05:12:46;;;;;;;;;6.67;5.00;;;;;25.24;44.92;101895.28;5077796;27;45589;-72
2022/06/10 05:15:16;;;;;;;;;3.33;2.67;;;;;25.37;45.31;101897.63;5077542;27;46163;-71
2022/06/10 05:17:42;;;;;;;;;5.00;5.00;;;;;25.47;44.88;101894.84;5080106;27;45520;-72
2022/06/10 05:20:10;;;;;;;;;3.00;3.00;;;;;25.56;44.84;101901.25;5072739;27;45493;-72
2022/06/10 05:22:35;;;;;;;;;3.33;3.00;;;;;25.62;44.67;101901.47;5075738;27;45458;-71
2022/06/10 05:25:00;;;;;;;;;2.67;2.67;;;;;25.71;44.08;101896.13;5074715;27;48122;-72
2022/06/10 05:27:26;;;;;;;;;3.00;3.00;;;;;25.79;44.36;101897.06;5071392;27;47481;-71
2022/06/10 05:29:51;;;;;;;;;3.00;3.00;;;;;25.87;44.32;101903.59;5071665;27;45717;-72
2022/06/10 05:32:17;;;;;;;;;3.33;2.00;;;;;25.91;44.17;101903.09;5074163;27;45466;-72
2022/06/10 05:34:46;;;;;;;;;5.67;4.00;;;;;25.99;43.94;101906.91;5076513;27;46104;-72
2022/06/10 05:37:22;;;;;;;;;2.00;2.00;;;;;26.08;43.99;101910.56;5063096;27;45559;-72
2022/06/10 05:39:48;;;;;;;;;2.67;2.67;;;;;26.11;42.53;101902.09;5068029;28;45764;-72
2022/06/10 05:42:14;;;;;;;;;4.00;4.00;;;;;25.92;41.86;101899.38;5069660;27;45597;-73
2022/06/10 05:44:43;;;;;;;;;5.67;3.67;;;;;25.74;41.55;101909.41;5066114;28;46340;-72
2022/06/10 05:47:30;;;;;;;;;5.00;3.33;;;;;25.53;41.44;101910.53;5067715;27;45430;-72
2022/06/10 05:49:59;;;;;;;;;4.67;4.00;;;;;25.32;41.80;101913.53;5092791;27;46020;-71
2022/06/10 05:52:26;;;;;;;;;3.00;3.00;;;;;25.15;41.89;101924.22;5071548;27;45485;-71
2022/06/10 05:54:54;;;;;;;;;3.67;3.67;;;;;24.95;41.88;101918.00;5064634;28;45244;-72
2022/06/10 05:57:20;;;;;;;;;4.33;4.00;;;;;24.85;42.18;101939.78;5056728;28;45542;-74
2022/06/10 05:59:52;;;;;;;;;4.33;4.33;;;;;24.74;42.30;101932.66;5056557;28;45612;-72
2022/06/10 06:02:20;;;;;;;;;3.67;3.67;;;;;24.64;42.70;101934.53;5056812;27;45884;-71
2022/06/10 06:04:46;;;;;;;;;4.00;4.00;;;;;24.58;42.91;101935.97;5057704;28;46445;-72
2022/06/10 06:07:17;;;;;;;;;2.67;2.67;;;;;24.53;42.79;101947.28;5058707;28;45816;-70
2022/06/10 06:09:42;;;;;;;;;4.67;4.67;;;;;24.46;43.03;101944.28;5062591;27;45434;-75
2022/06/10 06:12:09;;;;;;;;;3.67;3.67;;;;;24.43;43.18;101951.84;5067634;27;45423;-75
2022/06/10 06:14:34;;;;;;;;;3.67;3.67;;;;;24.39;43.21;101943.16;5071288;28;47741;-75
2022/06/10 06:17:01;;;;;;;;;3.00;3.00;;;;;24.42;43.04;101953.72;5061733;28;45643;-75
2022/06/10 06:19:28;;;;;;;;;5.00;5.00;;;;;24.37;43.35;101949.72;5058753;28;45736;-74
2022/06/10 06:21:54;;;;;;;;;4.00;4.00;;;;;24.38;43.14;101949.59;5057120;28;45908;-74
2022/06/10 06:24:20;;;;;;;;;2.00;2.00;;;;;24.37;43.52;101957.88;5056978;28;46391;-74
2022/06/10 06:26:46;;;;;;;;;3.67;3.67;;;;;24.29;43.27;101958.59;5054769;28;45544;-72
2022/06/10 06:29:12;;;;;;;;;6.00;4.33;;;;;24.20;43.42;101953.03;5053394;28;45865;-72
2022/06/10 06:31:38;;;;;;;;;4.67;4.67;;;;;24.17;43.69;101964.19;5055811;28;45495;-74
2022/06/10 06:34:04;;;;;;;;;4.33;4.33;;;;;24.20;43.82;101960.31;5053539;28;47268;-75
2022/06/10 06:36:34;;;;;;;;;6.00;6.00;;;;;24.28;43.79;101962.31;5055701;27;46833;-75
2022/06/10 06:39:00;;;;;;;;;6.00;4.33;;;;;24.37;43.71;101950.59;5053957;28;46264;-76
2022/06/10 06:41:26;;;;;;;;;6.00;4.67;;;;;24.49;43.64;101959.44;5054769;28;46264;-72
2022/06/10 06:43:51;;;;;;;;;6.67;5.33;;;;;24.56;43.82;101949.69;5055579;28;45479;-73
2022/06/10 06:46:18;;;;;;;;;4.67;4.67;;;;;24.72;42.82;101954.50;5092819;27;45442;-72
2022/06/10 06:48:44;;;;;;;;;7.00;4.00;;;;;24.81;43.00;101957.34;5065016;28;45365;-72
2022/06/10 06:51:10;;;;;;;;;5.00;5.00;;;;;24.85;43.09;101958.81;5065205;27;45412;-74
2022/06/10 06:53:36;;;;;;;;;3.33;3.33;;;;;24.90;42.46;101951.06;5057247;28;46142;-73
2022/06/10 06:56:02;;;;;;;;;3.00;3.00;;;;;24.98;42.78;101961.19;5065260;28;45767;-72
2022/06/10 06:58:28;;;;;;;;;3.33;2.67;;;;;25.03;42.67;101961.59;5067463;28;46188;-72
2022/06/10 07:00:53;;;;;;;;;3.00;3.00;;;;;25.05;42.33;101965.00;5070828;27;45580;-72
2022/06/10 07:03:20;;;;;;;;;4.00;3.00;;;;;25.12;42.39;101962.53;5070044;28;46123;-72
2022/06/10 07:05:46;;;;;;;;;2.00;2.00;;;;;25.15;42.88;101970.41;5061946;28;49206;-76
2022/06/10 07:08:11;;;;;;;;;3.67;3.67;;;;;25.16;42.40;101952.22;5059796;28;45500;-80
2022/06/10 07:10:37;;;;;;;;;3.33;3.33;;;;;25.20;42.52;101959.94;5069648;28;45636;-77
2022/06/10 07:13:02;;;;;;;;;2.00;2.00;;;;;25.22;42.46;101960.63;5066525;28;46340;-78
2022/06/10 07:15:28;;;;;;;;;3.33;3.33;;;;;25.26;42.61;101964.75;5069941;27;45493;-77
2022/06/10 07:17:53;;;;;;;;;3.33;3.00;;;;;25.30;42.26;101964.47;5063158;28;45541;-79
2022/06/10 07:20:31;;;;;;;;;5.00;4.00;;;;;25.36;42.31;101961.13;5066059;28;45744;-80
2022/06/10 07:22:59;;;;;;;;;4.00;3.00;;;;;25.38;42.06;101959.97;5066570;28;48139;-81
2022/06/10 07:25:25;;;;;;;;;2.33;2.33;;;;;25.39;42.32;101958.97;5067196;28;45724;-80
2022/06/10 07:27:52;;;;;;;;;4.00;4.00;;;;;25.43;42.16;101964.97;5067241;28;45913;-80
2022/06/10 07:30:20;;;;;;;;;2.67;2.67;;;;;25.46;41.70;101963.81;5065514;27;45380;-80
2022/06/10 07:32:46;;;;;;;;;2.67;2.67;;;;;25.48;41.64;101962.66;5063216;28;46031;-79
2022/06/10 07:35:12;;;;;;;;;3.33;3.33;;;;;25.53;41.81;101962.16;5065370;28;45598;-79
2022/06/10 07:37:38;;;;;;;;;4.00;4.00;;;;;25.59;41.87;101960.75;5068413;28;45627;-79
2022/06/10 07:40:04;;;;;;;;;2.00;2.00;;;;;25.60;41.75;101960.59;5058933;28;45465;-76
2022/06/10 07:42:29;;;;;;;;;3.00;3.00;;;;;25.63;41.63;101963.00;5059175;27;46377;-75
2022/06/10 07:44:55;;;;;;;;;2.67;2.67;;;;;25.67;41.69;101963.56;5065622;28;45430;-78
2022/06/10 07:47:20;;;;;;;;;2.00;2.00;;;;;25.72;41.66;101971.25;5063385;28;45689;-77
2022/06/10 07:49:45;;;;;;;;;2.67;2.67;;;;;25.74;41.77;101975.53;5060025;27;45609;-75
2022/06/10 07:52:12;;;;;;;;;3.67;2.33;;;;;25.75;41.32;101968.22;5064625;27;45908;-75
2022/06/10 07:54:37;;;;;;;;;2.33;2.33;;;;;25.77;41.39;101975.22;5052001;28;45637;-76
2022/06/10 07:57:05;;;;;;;;;4.00;2.00;;;;;25.79;41.30;101972.34;5062787;27;45986;-75
2022/06/10 07:59:31;;;;;;;;;3.33;3.00;;;;;25.80;41.52;101963.19;5065657;28;45727;-77
2022/06/10 08:01:58;;;;;;;;;4.00;4.00;;;;;25.85;41.23;101974.44;5063263;27;45856;-76
2022/06/10 08:04:23;;;;;;;;;3.67;3.00;;;;;25.86;41.68;101965.28;5064197;28;46194;-79
2022/06/10 08:06:50;;;;;;;;;2.00;2.00;;;;;25.88;41.06;101960.53;5060929;28;45491;-79
2022/06/10 08:09:20;;;;;;;;;2.00;2.00;;;;;25.90;41.39;101957.66;5062509;28;51825;-80
2022/06/10 08:11:46;;;;;;;;;2.00;2.00;;;;;25.93;41.25;101957.34;5062290;27;46794;-81
2022/06/10 08:14:12;;;;;;;;;2.00;2.00;;;;;25.97;41.31;101964.19;5069523;28;45568;-80
2022/06/10 08:16:37;;;;;;;;;2.67;2.67;;;;;26.01;40.89;101965.59;5067264;27;45359;-76
2022/06/10 08:19:03;;;;;;;;;2.33;2.33;;;;;26.02;41.29;101958.28;5069443;28;45432;-80
2022/06/10 08:24:13;;;;;;;;;2.00;2.00;;;;;26.05;40.76;101964.28;5060758;28;45510;-75
2022/06/10 08:26:38;;;;;;;;;2.00;2.00;;;;;26.08;41.17;101956.81;5065028;27;45470;-74
2022/06/10 08:29:04;;;;;;;;;3.00;1.67;;;;;26.11;40.84;101954.63;5056861;27;46170;-76
2022/06/10 08:31:30;;;;;;;;;2.67;2.67;;;;;26.12;41.22;101950.03;5061042;28;46536;-75
2022/06/10 08:33:57;;;;;;;;;4.67;3.00;;;;;26.15;40.49;101961.47;5068087;28;45438;-75
2022/06/10 08:36:23;;;;;;;;;2.00;2.00;;;;;26.17;40.89;101955.84;5061387;28;45264;-75
2022/06/10 08:38:48;;;;;;;;;2.33;2.33;;;;;26.16;40.83;101952.28;5061064;28;45692;-78
2022/06/10 08:41:23;;;;;;;;;3.00;3.00;;;;;26.19;40.72;101956.53;5067314;28;45554;-76
2022/06/10 08:44:11;;;;;;;;;2.00;1.33;;;;;26.21;40.58;101954.53;5064279;28;46105;-74
2022/06/10 08:46:42;;;;;;;;;3.00;2.00;;;;;26.23;40.50;101943.50;5058965;28;46015;-75
2022/06/10 08:49:24;;;;;;;;;1.67;1.67;;;;;26.21;40.66;101949.09;5064442;28;45386;-77
2022/06/10 08:51:52;;;;;;;;;2.00;2.00;;;;;26.25;41.09;101952.38;5060870;28;47343;-78
2022/06/10 08:54:44;;;;;;;;;2.00;2.00;;;;;26.20;40.48;101939.22;5091611;27;46099;-77
2022/06/10 08:57:24;;;;;;;;;3.00;1.33;;;;;26.28;40.55;101946.63;5066360;27;45679;-77
2022/06/10 08:59:50;;;;;;;;;1.00;1.00;;;;;26.27;40.15;101948.50;5062855;28;45375;-78
2022/06/10 09:02:41;;;;;;;;;2.00;2.00;;;;;26.30;40.52;101944.59;5067815;28;48679;-77
2022/06/10 09:05:07;;;;;;;;;2.33;2.33;;;;;26.33;40.18;101948.88;5066843;28;45719;-77
2022/06/10 09:07:32;;;;;;;;;1.67;1.67;;;;;26.35;40.42;101955.84;5062900;28;45520;-79
2022/06/10 09:10:01;;;;;;;;;1.00;1.00;;;;;26.36;40.46;101948.56;5064386;28;45696;-77
2022/06/10 09:12:37;;;;;;;;;3.00;2.00;;;;;26.38;40.51;101954.69;5068071;28;45637;-79
2022/06/10 09:15:04;;;;;;;;;2.00;2.00;;;;;26.36;40.01;101943.94;5063021;27;45536;-77
2022/06/10 09:17:53;;;;;;;;;1.00;1.00;;;;;26.41;39.98;101955.22;5066093;28;45464;-77
2022/06/10 09:20:29;;;;;;;;;5.33;4.00;;;;;26.43;40.33;101950.47;5069854;28;45594;-75
2022/06/10 11:17:50;;;;;;;;;2.00;2.00;;;;;22.27;48.20;101931.22;5114126;27;51355;-73
2022/06/10 11:20:16;;;;;;;;;2.00;2.00;;;;;22.40;48.98;101942.69;5104214;27;45492;-75
2022/06/10 11:22:44;;;;;;;;;4.00;3.00;;;;;22.56;48.72;101941.41;5107652;27;45716;-76
2022/06/10 11:25:14;;;;;;;;;3.67;2.00;;;;;22.78;48.57;101945.81;5109587;27;45525;-75
2022/06/10 11:27:57;;;;;;;;;2.00;2.00;;;;;23.03;48.59;101943.63;5106632;27;46311;-75
2022/06/10 11:30:31;;;;;;;;;2.33;2.33;;;;;23.30;48.34;101932.19;5102855;27;45468;-71
2022/06/10 11:33:02;;;;;;;;;3.00;3.00;;;;;23.58;48.05;101930.72;5109044;27;45476;-73
2022/06/10 11:35:52;;;;;;;;;2.00;2.00;;;;;23.84;47.82;101930.16;5104840;27;46556;-73
2022/06/10 11:38:23;;;;;;;;;5.00;2.00;;;;;24.13;47.45;101926.63;5102698;27;47289;-73
2022/06/10 11:40:54;;;;;;;;;3.67;2.33;;;;;24.34;47.37;101931.88;5101791;27;45381;-73
2022/06/10 11:43:27;;;;;;;;;1.67;1.67;;;;;24.54;46.88;101930.00;5108456;27;45331;-72
2022/06/10 11:46:02;;;;;;;;;2.33;2.00;;;;;24.74;46.51;101930.78;5105082;27;45505;-74
2022/06/10 11:48:32;;;;;;;;;2.00;2.00;;;;;24.94;46.56;101938.03;5106959;27;46087;-73
2022/06/10 11:51:22;;;;;;;;;2.00;2.00;;;;;25.11;46.20;101931.81;5099352;27;45586;-72
2022/06/10 11:53:56;;;;;;;;;2.33;2.00;;;;;25.25;45.92;101929.56;5099245;27;50727;-73
2022/06/10 11:59:45;;;;;;;;;3.33;2.33;;;;;25.54;45.66;101933.97;5106889;27;45394;-75
2022/06/10 12:02:20;;;;;;;;;3.00;3.00;;;;;25.70;44.55;101924.34;5103185;27;45463;-71
2022/06/10 12:04:55;;;;;;;;;3.00;3.00;;;;;25.79;43.91;101924.25;5099722;27;45549;-72
2022/06/10 12:07:25;;;;;;;;;2.00;2.00;;;;;25.91;43.78;101924.88;5109424;27;45481;-71
2022/06/10 12:09:56;;;;;;;;;3.00;3.00;;;;;26.00;43.34;101908.63;5098968;27;45432;-73
2022/06/10 12:12:29;;;;;;;;;1.67;1.67;;;;;26.10;43.18;101911.22;5108174;27;45639;-72
2022/06/10 12:14:58;;;;;;;;;1.67;1.67;;;;;26.13;43.44;101905.50;5103121;27;45700;-72
2022/06/10 12:17:30;;;;;;;;;2.33;2.33;;;;;26.17;42.99;101898.72;5105790;27;45470;-72
2022/06/10 12:20:13;;;;;;;;;3.00;2.00;;;;;26.27;42.34;101904.06;5108152;27;45459;-72
2022/06/10 12:22:39;;;;;;;;;2.00;2.00;;;;;26.31;42.31;101903.63;5106917;27;45622;-72
2022/06/10 12:25:17;;;;;;;;;2.00;2.00;;;;;26.37;42.32;101906.72;5106806;27;45410;-72
2022/06/10 12:28:03;;;;;;;;;1.00;1.00;;;;;26.40;42.46;101900.97;5099496;27;45614;-71
2022/06/10 12:30:44;;;;;;;;;2.00;2.00;;;;;26.44;42.10;101908.63;5094423;27;46729;-73
2022/06/10 12:33:15;;;;;;;;;3.00;1.00;;;;;26.49;42.03;101902.72;5084522;27;45538;-75
2022/06/10 12:35:43;;;;;;;;;3.00;3.00;;;;;26.52;41.88;101907.00;5094432;27;45455;-75
2022/06/10 12:38:26;;;;;;;;;3.67;2.33;;;;;26.57;41.61;101913.63;5090096;27;45403;-75
2022/06/10 12:41:19;;;;;;;;;3.00;2.33;;;;;26.62;42.19;101907.72;5093693;27;46419;-74
2022/06/10 12:43:53;;;;;;;;;1.67;1.67;;;;;26.64;42.12;101894.78;5091838;27;45439;-74
2022/06/10 12:46:40;;;;;;;;;2.33;2.00;;;;;26.68;41.58;101901.63;5087633;27;45452;-74
2022/06/10 12:49:29;;;;;;;;;2.00;2.00;;;;;26.72;41.69;101904.88;5091464;27;45704;-74
2022/06/10 12:52:07;;;;;;;;;1.33;1.33;;;;;26.74;41.99;101900.13;5091934;27;46391;-74
2022/06/10 12:54:33;;;;;;;;;3.00;2.00;;;;;26.77;41.14;101904.41;5093300;27;45506;-74
2022/06/10 12:57:25;;;;;;;;;1.33;1.33;;;;;26.77;41.55;101899.78;5088779;27;45492;-73
2022/06/10 13:00:23;;;;;;;;;1.67;1.67;;;;;26.79;41.09;101907.81;5085653;27;45367;-73
2022/06/10 13:02:51;;;;;;;;;2.00;2.00;;;;;26.79;41.62;101903.22;5085331;27;46374;-72
2022/06/10 13:05:27;;;;;;;;;2.67;2.67;;;;;26.80;41.26;101898.59;5080439;27;45457;-72
2022/06/10 13:07:55;;;;;;;;;4.00;3.00;;;;;26.81;41.67;101897.63;5102078;27;45391;-72
2022/06/10 13:10:32;;;;;;;;;2.00;2.00;;;;;26.83;41.50;101906.47;5093294;27;45420;-73
2022/06/10 13:13:14;;;;;;;;;2.00;2.00;;;;;26.87;41.49;101898.81;5084597;27;45897;-72
2022/06/10 13:15:42;;;;;;;;;1.67;1.67;;;;;26.86;40.99;101897.13;5086202;27;45844;-73
2022/06/10 13:18:16;;;;;;;;;4.00;1.00;;;;;26.87;41.41;101894.22;5093465;27;45576;-73
2022/06/10 13:20:44;;;;;;;;;1.00;1.00;;;;;26.89;40.67;101899.53;5087886;27;50031;-73
2022/06/10 13:23:13;;;;;;;;;2.00;2.00;;;;;26.90;41.39;101907.53;5093663;27;46332;-73
2022/06/10 13:25:41;;;;;;;;;1.33;1.33;;;;;26.91;41.00;101901.06;5093224;27;45610;-74
2022/06/10 13:28:40;;;;;;;;;2.00;2.00;;;;;26.94;41.25;101908.09;5093326;27;45325;-76
2022/06/10 13:31:26;;;;;;;;;1.67;1.67;;;;;26.94;40.63;101898.03;5050200;28;45611;-73
2022/06/10 13:34:06;;;;;;;;;2.00;2.00;;;;;26.95;41.37;101907.94;5047095;28;46696;-75
2022/06/10 13:36:37;;;;;;;;;3.00;3.00;;;;;26.96;41.03;101906.03;5046371;28;45483;-75
2022/06/10 13:39:06;;;;;;;;;1.33;1.33;;;;;26.92;40.75;101893.72;5041812;28;45412;-74
2022/06/10 13:41:49;;;;;;;;;2.00;2.00;;;;;26.96;41.17;101903.31;5050604;28;45530;-75
2022/06/10 13:44:30;;;;;;;;;2.00;2.00;;;;;26.97;41.23;101905.00;5049226;28;45508;-74
2022/06/10 13:46:57;;;;;;;;;2.00;2.00;;;;;26.99;40.68;101904.84;5044680;28;45514;-75
